Wylie's Hourly Summary for Tuesday, April 18, 2017
Hour Temp
(f)
RH
(%)
Solar Rad.
(MJ/m2)
Rainfall
(in)
Wind
(mph)
4/18/2017 12:00 AM 64 99 0 0 4.21
4/18/2017 1:00 AM 64 93 0 0 4.49
4/18/2017 2:00 AM 65 91 0 0 5.92
4/18/2017 3:00 AM 64 94 0 0 2.5
4/18/2017 4:00 AM 64 98 0 0 1.43
4/18/2017 5:00 AM 63 100 0 0 1.3
4/18/2017 6:00 AM 63 100 0 0 1.56
4/18/2017 7:00 AM 63 100 0 0 2.83
4/18/2017 8:00 AM 63 100 0.11 0 3.13
4/18/2017 9:00 AM 64 97 0.49 0 1.63
4/18/2017 10:00 AM 68 77 1.72 0 4.82
4/18/2017 11:00 AM 71 72 2.24 0 5.83
4/18/2017 12:00 PM 73 63 2.86 0 8.27
4/18/2017 1:00 PM 76 56 3.13 0.01 7.74
4/18/2017 2:00 PM 77 54 3.06 0 8.18
4/18/2017 3:00 PM 77 55 3.07 0 7.76
4/18/2017 4:00 PM 77 54 2.4 0 6.21
4/18/2017 5:00 PM 78 51 2.04 0 5.79
4/18/2017 6:00 PM 79 51 1.53 0 5.24
4/18/2017 7:00 PM 78 53 0.82 0 7.86
4/18/2017 8:00 PM 71 63 0.08 0 8.77
4/18/2017 9:00 PM 69 72 0 0 5.61
4/18/2017 10:00 PM 68 76 0 0 3.12
4/18/2017 11:00 PM 67 79 0 0 1.42
Data Summary 69 77 23.55 0.01 4.82